createdAt,value
2019-03-10T00:00:52.371Z,1008.38
2019-03-10T00:01:52.367Z,1008.36
2019-03-10T00:02:52.399Z,1008.30
2019-03-10T00:03:52.364Z,1008.33
2019-03-10T00:04:52.323Z,1008.27
2019-03-10T00:05:52.316Z,1008.31
2019-03-10T00:06:52.308Z,1008.29
2019-03-10T00:07:52.285Z,1008.35
2019-03-10T00:08:52.350Z,1008.33
2019-03-10T00:09:52.286Z,1008.31
2019-03-10T00:10:52.245Z,1008.31
2019-03-10T00:11:52.257Z,1008.31
2019-03-10T00:12:52.299Z,1008.29
2019-03-10T00:13:52.252Z,1008.27
2019-03-10T00:14:52.207Z,1008.22
2019-03-10T00:15:52.193Z,1008.16
2019-03-10T00:16:52.201Z,1008.15
2019-03-10T00:17:52.212Z,1008.15
2019-03-10T00:18:52.191Z,1008.13
2019-03-10T00:19:52.147Z,1008.14
2019-03-10T00:20:52.137Z,1008.11
2019-03-10T00:21:52.141Z,1008.10
2019-03-10T00:22:52.154Z,1008.06
2019-03-10T00:23:52.132Z,1008.06
2019-03-10T00:24:52.097Z,1008.03
2019-03-10T00:25:52.090Z,1008.04
2019-03-10T00:26:52.080Z,1007.99
2019-03-10T00:27:52.093Z,1008.03
2019-03-10T00:28:52.051Z,1007.98
2019-03-10T00:29:52.040Z,1008.01
2019-03-10T00:30:52.027Z,1008.03
2019-03-10T00:31:52.026Z,1007.98
2019-03-10T00:32:52.034Z,1008.04
2019-03-10T00:33:52.026Z,1007.99
2019-03-10T00:34:52.071Z,1007.96
2019-03-10T00:35:51.980Z,1007.95
2019-03-10T00:36:51.961Z,1007.94
2019-03-10T00:37:51.953Z,1007.94
2019-03-10T00:38:51.961Z,1007.97
2019-03-10T00:39:51.920Z,1007.97
2019-03-10T00:40:51.919Z,1007.94
2019-03-10T00:41:51.901Z,1007.95
2019-03-10T00:42:51.983Z,1007.93
2019-03-10T00:43:51.888Z,1007.93
2019-03-10T00:44:51.874Z,1007.95
2019-03-10T00:45:51.865Z,1007.91
2019-03-10T00:46:51.846Z,1007.91
2019-03-10T00:47:51.851Z,1007.92
2019-03-10T00:48:51.834Z,1007.85
2019-03-10T00:49:51.807Z,1007.81
2019-03-10T00:50:51.821Z,1007.77
2019-03-10T00:51:51.970Z,1007.77
2019-03-10T00:52:51.893Z,1007.77
2019-03-10T00:53:51.822Z,1007.77
2019-03-10T00:54:51.745Z,1007.77
2019-03-10T00:55:51.742Z,1007.73
2019-03-10T00:56:51.777Z,1007.74
2019-03-10T00:57:51.789Z,1007.76
2019-03-10T00:58:51.704Z,1007.76
2019-03-10T00:59:51.745Z,1007.76
2019-03-10T01:00:51.724Z,1007.77
2019-03-10T01:01:51.670Z,1007.74
2019-03-10T01:02:51.673Z,1007.72
2019-03-10T01:03:51.684Z,1007.66
2019-03-10T01:04:51.648Z,1007.72
2019-03-10T01:05:51.631Z,1007.68
2019-03-10T01:06:51.709Z,1007.73
2019-03-10T01:07:51.663Z,1007.69
2019-03-10T01:08:51.601Z,1007.69
2019-03-10T01:09:51.617Z,1007.66
2019-03-10T01:10:51.585Z,1007.65
2019-03-10T01:11:51.599Z,1007.60
2019-03-10T01:12:51.572Z,1007.63
2019-03-10T01:13:51.567Z,1007.63
2019-03-10T01:14:51.535Z,1007.57
2019-03-10T01:15:51.519Z,1007.56
2019-03-10T01:16:51.503Z,1007.57
2019-03-10T01:17:51.525Z,1007.55
2019-03-10T01:18:51.492Z,1007.51
2019-03-10T01:19:51.480Z,1007.46
2019-03-10T01:20:51.461Z,1007.49
2019-03-10T01:21:51.449Z,1007.38
2019-03-10T01:22:51.462Z,1007.32
2019-03-10T01:23:51.428Z,1007.29
2019-03-10T01:24:51.422Z,1007.28
2019-03-10T01:25:51.418Z,1007.28
2019-03-10T01:26:51.426Z,1007.26
2019-03-10T01:27:51.406Z,1007.21
2019-03-10T01:28:51.478Z,1007.19
2019-03-10T01:29:51.414Z,1007.14
2019-03-10T01:30:51.345Z,1007.15
2019-03-10T01:31:51.353Z,1007.14
2019-03-10T01:32:51.529Z,1007.07
2019-03-10T01:33:51.336Z,1007.03
2019-03-10T01:34:51.328Z,1006.99
2019-03-10T01:35:51.298Z,1006.96
2019-03-10T01:36:51.307Z,1006.92
2019-03-10T01:37:51.283Z,1006.91
2019-03-10T01:38:51.324Z,1006.86
2019-03-10T01:39:51.255Z,1006.83
2019-03-10T01:40:51.248Z,1006.79
2019-03-10T01:41:51.230Z,1006.76
2019-03-10T01:42:51.243Z,1006.70
2019-03-10T01:43:51.243Z,1006.63
2019-03-10T01:44:51.204Z,1006.56
2019-03-10T01:45:51.201Z,1006.52
2019-03-10T01:46:51.194Z,1006.42
2019-03-10T01:47:51.181Z,1006.44
2019-03-10T01:48:51.169Z,1006.39
2019-03-10T01:49:51.146Z,1006.37
2019-03-10T01:50:51.136Z,1006.32
2019-03-10T01:51:51.129Z,1006.29
2019-03-10T01:52:51.224Z,1006.26
2019-03-10T01:53:51.111Z,1006.23
2019-03-10T01:54:51.094Z,1006.20
2019-03-10T01:55:51.065Z,1006.18
2019-03-10T01:56:51.080Z,1006.18
2019-03-10T01:57:51.074Z,1006.11
2019-03-10T01:58:51.033Z,1006.12
2019-03-10T01:59:51.023Z,1006.08
2019-03-10T02:00:51.029Z,1006.04
2019-03-10T02:01:51.007Z,1006.01
2019-03-10T02:02:50.987Z,1005.99
2019-03-10T02:03:50.982Z,1006.00
2019-03-10T02:04:50.970Z,1005.95
2019-03-10T02:05:50.979Z,1005.92
2019-03-10T02:06:50.952Z,1005.92
2019-03-10T02:07:50.934Z,1005.88
2019-03-10T02:08:50.985Z,1005.85
2019-03-10T02:09:50.918Z,1005.82
2019-03-10T02:10:50.902Z,1005.79
2019-03-10T02:11:50.903Z,1005.77
2019-03-10T02:12:50.877Z,1005.68
2019-03-10T02:13:50.901Z,1005.65
2019-03-10T02:14:50.890Z,1005.61
2019-03-10T02:15:50.845Z,1005.56
2019-03-10T02:16:50.845Z,1005.51
2019-03-10T02:17:50.833Z,1005.49
2019-03-10T02:18:50.827Z,1005.38
2019-03-10T02:19:50.798Z,1005.42
2019-03-10T02:20:50.839Z,1005.32
2019-03-10T02:21:50.779Z,1005.30
2019-03-10T02:22:50.764Z,1005.24
2019-03-10T02:23:51.043Z,1005.20
2019-03-10T02:24:50.747Z,1005.20
2019-03-10T02:25:50.728Z,1005.19
2019-03-10T02:26:50.735Z,1005.17
2019-03-10T02:27:50.714Z,1005.14
2019-03-10T02:28:50.742Z,1005.14
2019-03-10T02:29:50.701Z,1005.11
2019-03-10T02:30:50.682Z,1005.12
2019-03-10T02:31:50.690Z,1005.09
2019-03-10T02:32:50.668Z,1005.07
2019-03-10T02:33:50.681Z,1005.05
2019-03-10T02:34:50.652Z,1005.05
2019-03-10T02:35:50.645Z,1005.01
2019-03-10T02:36:50.617Z,1004.96
2019-03-10T02:37:50.605Z,1004.91
2019-03-10T02:38:50.606Z,1004.96
2019-03-10T02:39:50.589Z,1004.91
2019-03-10T02:40:50.585Z,1004.84
2019-03-10T02:41:50.557Z,1004.80
2019-03-10T02:42:50.545Z,1004.77
2019-03-10T02:43:50.546Z,1004.71
2019-03-10T02:44:50.527Z,1004.66
2019-03-10T02:45:50.524Z,1004.64
2019-03-10T02:46:50.508Z,1004.58
2019-03-10T02:47:50.491Z,1004.53
2019-03-10T02:48:50.507Z,1004.50
2019-03-10T02:49:50.479Z,1004.49
2019-03-10T02:50:50.485Z,1004.42
2019-03-10T02:51:50.454Z,1004.40
2019-03-10T02:52:50.557Z,1004.33
2019-03-10T02:53:50.442Z,1004.30
2019-03-10T02:54:52.520Z,1004.23
2019-03-10T02:55:50.411Z,1004.23
2019-03-10T02:56:50.393Z,1004.23
2019-03-10T02:57:50.379Z,1004.22
2019-03-10T02:58:50.415Z,1004.18
2019-03-10T02:59:50.372Z,1004.17
2019-03-10T03:00:50.391Z,1004.17
2019-03-10T03:01:50.349Z,1004.13
2019-03-10T03:02:50.341Z,1004.11
2019-03-10T03:03:50.330Z,1004.11
2019-03-10T03:04:50.308Z,1004.10
2019-03-10T03:05:50.315Z,1004.03
2019-03-10T03:06:50.289Z,1003.98
2019-03-10T03:07:50.287Z,1003.89
2019-03-10T03:08:50.284Z,1003.92
2019-03-10T03:09:50.268Z,1003.91
2019-03-10T03:10:50.253Z,1003.91
2019-03-10T03:11:50.223Z,1003.93
2019-03-10T03:12:50.210Z,1003.91
2019-03-10T03:13:50.222Z,1003.85
2019-03-10T03:14:50.195Z,1003.86
2019-03-10T03:15:50.209Z,1003.81
2019-03-10T03:16:52.768Z,1003.79
2019-03-10T03:17:50.204Z,1003.75
2019-03-10T03:18:50.175Z,1003.70
2019-03-10T03:19:50.148Z,1003.63
2019-03-10T03:20:50.126Z,1003.55
2019-03-10T03:21:50.132Z,1003.42
2019-03-10T03:22:50.119Z,1003.35
2019-03-10T03:23:50.106Z,1003.27
2019-03-10T03:24:50.125Z,1003.31
2019-03-10T03:25:50.077Z,1003.36
2019-03-10T03:26:50.078Z,1003.42
2019-03-10T03:27:50.078Z,1003.47
2019-03-10T03:28:50.055Z,1003.40
2019-03-10T03:29:50.034Z,1003.38
2019-03-10T03:30:50.022Z,1003.31
2019-03-10T03:31:50.021Z,1003.27
2019-03-10T03:32:50.049Z,1003.24
2019-03-10T03:33:49.986Z,1003.16
2019-03-10T03:34:50.029Z,1003.19
2019-03-10T03:35:49.979Z,1003.15
2019-03-10T03:36:50.082Z,1003.15
2019-03-10T03:37:50.001Z,1003.16
2019-03-10T03:38:49.946Z,1003.13
2019-03-10T03:39:49.940Z,1003.14
2019-03-10T03:40:49.906Z,1003.14
2019-03-10T03:41:50.000Z,1003.13
2019-03-10T03:42:49.983Z,1003.02
2019-03-10T03:43:49.891Z,1003.04
2019-03-10T03:44:49.895Z,1002.94
2019-03-10T03:45:49.867Z,1002.92
2019-03-10T03:46:49.839Z,1003.02
2019-03-10T03:47:49.848Z,1002.94
2019-03-10T03:48:49.818Z,1002.86
2019-03-10T03:49:49.840Z,1002.88
2019-03-10T03:50:49.910Z,1002.82
2019-03-10T03:51:49.798Z,1002.78
2019-03-10T03:52:49.789Z,1002.77
2019-03-10T03:53:49.799Z,1002.73
2019-03-10T03:54:49.876Z,1002.69
2019-03-10T03:55:49.741Z,1002.66
2019-03-10T03:56:49.738Z,1002.65
2019-03-10T03:57:49.733Z,1002.66
2019-03-10T03:58:49.707Z,1002.64
2019-03-10T03:59:49.728Z,1002.67
2019-03-10T04:00:49.816Z,1002.59
2019-03-10T04:01:49.689Z,1002.64
2019-03-10T04:02:49.683Z,1002.53
2019-03-10T04:03:49.710Z,1002.54
2019-03-10T04:04:49.663Z,1002.48
2019-03-10T04:05:49.646Z,1002.45
2019-03-10T04:06:49.632Z,1002.41
2019-03-10T04:07:49.631Z,1002.30
2019-03-10T04:08:49.618Z,1002.32
2019-03-10T04:09:49.602Z,1002.29
2019-03-10T04:10:49.599Z,1002.26
2019-03-10T04:11:49.571Z,1002.21
2019-03-10T04:12:49.567Z,1002.17
2019-03-10T04:13:49.553Z,1002.16
2019-03-10T04:14:49.557Z,1002.10
2019-03-10T04:15:49.521Z,1002.11
2019-03-10T04:16:49.527Z,1002.04
2019-03-10T04:17:49.497Z,1002.01
2019-03-10T04:18:49.503Z,1001.96
2019-03-10T04:19:49.508Z,1001.95
2019-03-10T04:20:49.489Z,1001.90
2019-03-10T04:21:49.454Z,1001.89
2019-03-10T04:22:49.466Z,1001.87
2019-03-10T04:23:49.463Z,1001.86
2019-03-10T04:24:49.463Z,1001.87
2019-03-10T04:25:49.409Z,1001.83
2019-03-10T04:26:49.400Z,1001.82
2019-03-10T04:27:49.414Z,1001.83
2019-03-10T04:28:49.381Z,1001.80
2019-03-10T04:29:49.395Z,1001.79
2019-03-10T04:30:49.405Z,1001.77
2019-03-10T04:31:49.341Z,1001.78
2019-03-10T04:32:49.353Z,1001.77
2019-03-10T04:33:49.330Z,1001.76
2019-03-10T04:34:49.316Z,1001.70
2019-03-10T04:35:49.294Z,1001.69
2019-03-10T04:36:49.373Z,1001.68
2019-03-10T04:37:49.306Z,1001.66
2019-03-10T04:38:49.269Z,1001.65
2019-03-10T04:39:49.264Z,1001.70
2019-03-10T04:40:49.286Z,1001.64
2019-03-10T04:41:49.225Z,1001.66
2019-03-10T04:42:49.230Z,1001.66
2019-03-10T04:43:49.200Z,1001.61
2019-03-10T04:44:49.234Z,1001.64
2019-03-10T04:45:49.250Z,1001.54
2019-03-10T04:46:49.184Z,1001.50
2019-03-10T04:47:49.180Z,1001.49
2019-03-10T04:48:49.173Z,1001.48
2019-03-10T04:49:49.156Z,1001.40
2019-03-10T04:50:49.141Z,1001.41
2019-03-10T04:51:49.120Z,1001.33
2019-03-10T04:52:49.106Z,1001.25
2019-03-10T04:53:49.394Z,1001.23
2019-03-10T04:54:49.119Z,1001.14
2019-03-10T04:55:49.164Z,1001.10
2019-03-10T04:56:49.069Z,1001.06
2019-03-10T04:57:49.085Z,1001.07
2019-03-10T04:58:49.056Z,1000.99
2019-03-10T04:59:49.049Z,1000.91
2019-03-10T05:00:49.036Z,1000.90
2019-03-10T05:01:49.011Z,1000.86
2019-03-10T05:02:48.997Z,1000.78
2019-03-10T05:03:49.018Z,1000.76
2019-03-10T05:04:49.111Z,1000.69
2019-03-10T05:05:48.978Z,1000.57
2019-03-10T05:06:48.958Z,1000.47
2019-03-10T05:07:48.958Z,1000.39
2019-03-10T05:08:48.995Z,1000.33
2019-03-10T05:09:48.929Z,1000.20
2019-03-10T05:10:48.930Z,1000.19
2019-03-10T05:11:48.909Z,1000.10
2019-03-10T05:12:48.898Z,1000.03
2019-03-10T05:13:48.894Z,999.87
2019-03-10T05:14:48.879Z,999.77
2019-03-10T05:15:48.867Z,999.79
2019-03-10T05:16:48.857Z,999.74
2019-03-10T05:17:48.841Z,999.66
2019-03-10T05:18:48.820Z,999.63
2019-03-10T05:19:48.809Z,999.58
2019-03-10T05:20:48.808Z,999.56
2019-03-10T05:21:48.810Z,999.53
2019-03-10T05:22:48.780Z,999.49
2019-03-10T05:23:48.783Z,999.50
2019-03-10T05:24:48.861Z,999.47
2019-03-10T05:25:48.758Z,999.46
2019-03-10T05:26:48.831Z,999.35
2019-03-10T05:27:48.762Z,999.31
2019-03-10T05:28:48.711Z,999.27
2019-03-10T05:29:48.706Z,999.24
2019-03-10T05:30:48.712Z,999.21
2019-03-10T05:31:48.691Z,999.12
2019-03-10T05:32:48.668Z,999.10
2019-03-10T05:33:48.669Z,999.09
2019-03-10T05:34:48.665Z,999.04
2019-03-10T05:35:48.643Z,999.08
2019-03-10T05:36:48.646Z,998.99
2019-03-10T05:37:48.625Z,998.98
2019-03-10T05:38:48.615Z,998.95
2019-03-10T05:39:48.618Z,998.92
2019-03-10T05:40:48.617Z,998.95
2019-03-10T05:41:48.797Z,998.89
2019-03-10T05:42:48.552Z,998.87
2019-03-10T05:43:48.547Z,998.87
2019-03-10T05:44:48.552Z,998.85
2019-03-10T05:45:48.557Z,998.80
2019-03-10T05:46:48.569Z,998.84
2019-03-10T05:47:48.514Z,998.72
2019-03-10T05:48:48.490Z,998.66
2019-03-10T05:49:48.479Z,998.60
2019-03-10T05:50:48.478Z,998.57
2019-03-10T05:51:48.466Z,998.53
2019-03-10T05:52:48.462Z,998.54
2019-03-10T05:53:48.452Z,998.51
2019-03-10T05:54:48.426Z,998.42
2019-03-10T05:55:48.529Z,998.39
2019-03-10T05:56:48.397Z,998.30
2019-03-10T05:57:48.401Z,998.30
2019-03-10T05:58:48.387Z,998.25
2019-03-10T05:59:48.377Z,998.21
2019-03-10T06:00:48.367Z,998.11
2019-03-10T06:01:48.358Z,998.14
2019-03-10T06:02:48.412Z,998.13
2019-03-10T06:03:48.349Z,998.03
2019-03-10T06:04:48.310Z,998.01
2019-03-10T06:05:48.342Z,998.00
2019-03-10T06:06:48.299Z,997.96
2019-03-10T06:07:48.282Z,997.94
2019-03-10T06:08:48.271Z,997.92
2019-03-10T06:09:48.267Z,997.92
2019-03-10T06:10:48.261Z,997.95
2019-03-10T06:11:48.260Z,997.94
2019-03-10T06:12:48.240Z,997.90
2019-03-10T06:13:48.216Z,997.83
2019-03-10T06:14:48.211Z,997.84
2019-03-10T06:15:48.216Z,997.77
2019-03-10T06:16:48.191Z,997.72
2019-03-10T06:17:48.195Z,997.72
2019-03-10T06:18:48.159Z,997.66
2019-03-10T06:19:48.146Z,997.65
2019-03-10T06:20:48.177Z,997.59
2019-03-10T06:21:48.152Z,997.56
2019-03-10T06:22:48.118Z,997.56
2019-03-10T06:23:48.107Z,997.50
2019-03-10T06:24:48.132Z,997.41
2019-03-10T06:25:48.097Z,997.34
2019-03-10T06:26:48.168Z,997.32
2019-03-10T06:27:48.052Z,997.24
2019-03-10T06:28:48.060Z,997.21
2019-03-10T06:29:48.042Z,997.18
2019-03-10T06:30:48.097Z,997.07
2019-03-10T06:31:48.252Z,997.01
2019-03-10T06:32:48.064Z,997.02
2019-03-10T06:33:47.995Z,997.09
2019-03-10T06:34:48.034Z,997.00
2019-03-10T06:35:47.987Z,996.93
2019-03-10T06:36:47.951Z,997.03
2019-03-10T06:37:47.954Z,997.06
2019-03-10T06:38:47.950Z,997.08
2019-03-10T06:39:47.928Z,996.97
2019-03-10T06:40:47.924Z,997.00
2019-03-10T06:41:47.923Z,996.97
2019-03-10T06:42:47.906Z,996.95
2019-03-10T06:43:47.874Z,996.88
2019-03-10T06:44:47.869Z,996.67
2019-03-10T06:45:47.851Z,996.80
2019-03-10T06:46:47.894Z,996.67
2019-03-10T06:47:47.846Z,996.47
2019-03-10T06:48:47.910Z,996.13
2019-03-10T06:49:47.830Z,996.36
2019-03-10T06:50:47.863Z,996.54
2019-03-10T06:51:47.802Z,996.62
2019-03-10T06:52:47.814Z,996.62
2019-03-10T06:53:47.769Z,996.61
2019-03-10T06:54:47.756Z,996.59
2019-03-10T06:55:47.759Z,996.61
2019-03-10T06:56:47.761Z,996.44
2019-03-10T06:57:47.737Z,996.48
2019-03-10T06:58:47.714Z,996.36
2019-03-10T06:59:49.777Z,996.20
2019-03-10T07:00:47.712Z,996.22
2019-03-10T07:01:47.708Z,996.15
2019-03-10T07:02:47.665Z,996.16
2019-03-10T07:03:47.653Z,996.07
2019-03-10T07:04:47.637Z,996.05
2019-03-10T07:05:47.780Z,996.03
2019-03-10T07:06:47.682Z,996.07
2019-03-10T07:07:47.617Z,996.05
2019-03-10T07:08:47.596Z,996.05
2019-03-10T07:09:47.587Z,995.95
2019-03-10T07:10:47.592Z,995.93
2019-03-10T07:11:47.590Z,995.93
2019-03-10T07:12:47.566Z,995.94
2019-03-10T07:13:47.548Z,995.96
2019-03-10T07:14:47.545Z,995.92
2019-03-10T07:15:47.538Z,995.90
2019-03-10T07:16:47.544Z,995.88
2019-03-10T07:17:47.499Z,995.98
2019-03-10T07:18:47.504Z,995.88
2019-03-10T07:19:47.503Z,995.90
2019-03-10T07:20:47.480Z,995.89
2019-03-10T07:21:47.466Z,995.85
2019-03-10T07:22:47.443Z,995.83
2019-03-10T07:23:47.999Z,995.81
2019-03-10T07:24:47.431Z,995.84
2019-03-10T07:25:47.425Z,995.78
2019-03-10T07:26:47.427Z,995.76
2019-03-10T07:27:47.446Z,995.78
2019-03-10T07:28:47.467Z,995.77
2019-03-10T07:29:47.377Z,995.71
2019-03-10T07:30:47.365Z,995.70
2019-03-10T07:31:47.375Z,995.66
2019-03-10T07:32:47.342Z,995.62
2019-03-10T07:33:47.331Z,995.66
2019-03-10T07:34:47.307Z,995.59
2019-03-10T07:35:47.315Z,995.59
2019-03-10T07:36:47.323Z,995.60
2019-03-10T07:37:47.328Z,995.53
2019-03-10T07:38:47.259Z,995.54
2019-03-10T07:39:47.256Z,995.54
2019-03-10T07:40:47.339Z,995.56
2019-03-10T07:41:47.348Z,995.55
2019-03-10T07:42:47.250Z,995.53
2019-03-10T07:43:47.199Z,995.49
2019-03-10T07:44:47.205Z,995.51
2019-03-10T07:45:47.199Z,995.54
2019-03-10T07:46:47.403Z,995.51
2019-03-10T07:47:47.169Z,995.49
2019-03-10T07:48:47.158Z,995.53
2019-03-10T07:49:47.138Z,995.53
2019-03-10T07:50:47.130Z,995.56
2019-03-10T07:51:47.145Z,995.53
2019-03-10T07:52:47.117Z,995.50
2019-03-10T07:53:47.135Z,995.49
2019-03-10T07:54:47.116Z,995.39
2019-03-10T07:55:47.143Z,995.44
2019-03-10T07:56:47.076Z,995.41
2019-03-10T07:57:47.056Z,995.41
2019-03-10T07:58:47.056Z,995.42
2019-03-10T07:59:47.034Z,995.40
2019-03-10T08:00:47.024Z,995.40
2019-03-10T08:01:47.269Z,995.41
2019-03-10T08:02:47.016Z,995.40
2019-03-10T08:03:46.981Z,995.35
2019-03-10T08:04:46.974Z,995.32
2019-03-10T08:05:49.966Z,995.29
2019-03-10T08:06:46.983Z,995.30
2019-03-10T08:07:46.969Z,995.31
2019-03-10T08:08:46.931Z,995.26
2019-03-10T08:09:46.936Z,995.32
2019-03-10T08:10:46.919Z,995.32
2019-03-10T08:11:46.918Z,995.32
2019-03-10T08:12:46.898Z,995.31
2019-03-10T08:13:46.882Z,995.27
2019-03-10T08:14:46.860Z,995.29
2019-03-10T08:15:46.909Z,995.27
2019-03-10T08:16:46.850Z,995.30
2019-03-10T08:17:46.862Z,995.31
2019-03-10T08:18:46.841Z,995.32
2019-03-10T08:19:46.832Z,995.31
2019-03-10T08:20:46.809Z,995.31
2019-03-10T08:21:46.845Z,995.30
2019-03-10T08:22:46.800Z,995.25
2019-03-10T08:23:46.776Z,995.18
2019-03-10T08:24:46.826Z,995.18
2019-03-10T08:25:46.875Z,995.19
2019-03-10T08:26:46.729Z,995.17
2019-03-10T08:27:46.880Z,995.20
2019-03-10T08:28:46.706Z,995.20
2019-03-10T08:29:46.706Z,995.14
2019-03-10T08:30:46.729Z,995.10
2019-03-10T08:31:46.683Z,995.05
2019-03-10T08:32:46.677Z,995.07
2019-03-10T08:33:46.653Z,995.06
2019-03-10T08:34:46.639Z,995.08
2019-03-10T08:35:46.630Z,995.12
2019-03-10T08:36:46.632Z,995.16
2019-03-10T08:37:46.649Z,995.06
2019-03-10T08:38:47.490Z,995.13
2019-03-10T08:39:46.602Z,995.16
2019-03-10T08:40:46.593Z,995.17
2019-03-10T08:41:46.577Z,995.18
2019-03-10T08:42:46.585Z,995.16
2019-03-10T08:43:46.561Z,995.09
2019-03-10T08:44:46.544Z,995.03
2019-03-10T08:45:46.543Z,995.09
2019-03-10T08:46:46.514Z,995.07
2019-03-10T08:47:46.511Z,995.10
2019-03-10T08:48:46.514Z,995.07
2019-03-10T08:49:46.556Z,995.12
2019-03-10T08:50:46.496Z,995.22
2019-03-10T08:51:46.486Z,995.22
2019-03-10T08:52:46.461Z,995.15
2019-03-10T08:53:46.426Z,995.10
2019-03-10T08:54:46.453Z,995.15
2019-03-10T08:55:46.417Z,995.20
2019-03-10T08:56:46.467Z,995.31
2019-03-10T08:57:46.406Z,995.35
2019-03-10T08:58:46.411Z,995.25
2019-03-10T08:59:46.486Z,995.26
2019-03-10T09:00:46.356Z,995.31
2019-03-10T09:01:46.338Z,995.30
2019-03-10T09:02:46.349Z,995.31
2019-03-10T09:03:46.411Z,995.23
2019-03-10T09:04:46.325Z,995.34
2019-03-10T09:05:46.310Z,995.26
2019-03-10T09:06:46.286Z,995.25
2019-03-10T09:07:46.289Z,995.19
2019-03-10T09:08:46.275Z,995.13
2019-03-10T09:09:46.347Z,995.02
2019-03-10T09:10:46.240Z,995.06
2019-03-10T09:11:46.243Z,995.12
2019-03-10T09:12:46.229Z,995.11
2019-03-10T09:13:46.219Z,995.06
2019-03-10T09:14:46.218Z,995.09
2019-03-10T09:15:46.184Z,995.14
2019-03-10T09:16:46.190Z,995.08
2019-03-10T09:17:46.202Z,995.07
2019-03-10T09:18:46.148Z,995.10
2019-03-10T09:19:46.165Z,995.16
2019-03-10T09:20:46.144Z,994.92
2019-03-10T09:21:46.114Z,995.20
2019-03-10T09:22:46.157Z,995.05
2019-03-10T09:23:46.105Z,995.19
2019-03-10T09:24:46.085Z,995.10
2019-03-10T09:25:46.082Z,995.02
2019-03-10T09:26:46.095Z,995.21
2019-03-10T09:27:46.076Z,995.16
2019-03-10T09:28:46.054Z,995.08
2019-03-10T09:29:46.057Z,995.20
2019-03-10T09:30:46.020Z,995.20
2019-03-10T09:31:46.008Z,995.06
2019-03-10T09:32:46.013Z,995.07
2019-03-10T09:33:45.981Z,995.12
2019-03-10T09:34:45.976Z,995.05
2019-03-10T09:35:45.987Z,995.06
2019-03-10T09:36:45.943Z,995.05
2019-03-10T09:37:45.950Z,994.98
2019-03-10T09:38:45.936Z,995.01
2019-03-10T09:39:45.921Z,995.02
2019-03-10T09:40:45.906Z,994.89
2019-03-10T09:41:45.890Z,995.04
2019-03-10T09:42:45.882Z,994.91
2019-03-10T09:43:45.911Z,994.97
2019-03-10T09:44:45.865Z,994.99
2019-03-10T09:45:45.840Z,994.92
2019-03-10T09:46:45.873Z,994.94
2019-03-10T09:47:45.831Z,994.82
2019-03-10T09:48:46.270Z,994.83
2019-03-10T09:49:45.810Z,994.86
2019-03-10T09:50:45.790Z,994.71
2019-03-10T09:51:45.804Z,994.69
2019-03-10T09:52:45.779Z,994.65
2019-03-10T09:53:45.785Z,994.69
2019-03-10T09:54:45.814Z,994.65
2019-03-10T09:55:45.750Z,994.66
2019-03-10T09:56:45.764Z,994.68
2019-03-10T09:57:45.723Z,994.64
2019-03-10T09:58:45.727Z,994.61
2019-03-10T09:59:45.696Z,994.69
2019-03-10T10:00:45.676Z,994.66
2019-03-10T10:01:45.689Z,994.52
2019-03-10T10:02:45.692Z,994.46
2019-03-10T10:03:45.673Z,994.62
2019-03-10T10:04:45.630Z,994.76
2019-03-10T10:05:45.720Z,994.78
2019-03-10T10:06:45.614Z,994.69
2019-03-10T10:07:45.595Z,994.61
2019-03-10T10:08:45.619Z,994.65
2019-03-10T10:09:45.588Z,994.62
2019-03-10T10:10:45.570Z,994.68
2019-03-10T10:11:45.547Z,994.45
2019-03-10T10:12:45.554Z,994.59
2019-03-10T10:13:45.548Z,994.51
2019-03-10T10:14:45.537Z,994.57
2019-03-10T10:15:45.540Z,994.56
2019-03-10T10:16:45.509Z,994.51
2019-03-10T10:17:45.500Z,994.52
2019-03-10T10:18:45.488Z,994.65
2019-03-10T10:19:45.580Z,994.61
2019-03-10T10:20:45.460Z,994.63
2019-03-10T10:21:45.477Z,994.58
2019-03-10T10:22:45.450Z,994.51
2019-03-10T10:23:45.467Z,994.49
2019-03-10T10:24:45.473Z,994.42
2019-03-10T10:25:45.396Z,994.52
2019-03-10T10:26:45.396Z,994.48
2019-03-10T10:27:45.368Z,994.43
2019-03-10T10:28:45.395Z,994.58
2019-03-10T10:29:45.370Z,994.55
2019-03-10T10:30:45.434Z,994.65
2019-03-10T10:31:45.337Z,994.71
2019-03-10T10:32:46.506Z,994.61
2019-03-10T10:33:45.329Z,994.64
2019-03-10T10:34:45.783Z,994.60
2019-03-10T10:35:45.384Z,994.63
2019-03-10T10:36:45.373Z,994.64
2019-03-10T10:37:45.272Z,994.68
2019-03-10T10:38:45.269Z,994.57
2019-03-10T10:39:45.266Z,994.61
2019-03-10T10:40:45.322Z,994.53
2019-03-10T10:41:45.216Z,994.66
2019-03-10T10:42:45.209Z,994.60
2019-03-10T10:43:45.311Z,994.65
2019-03-10T10:44:45.206Z,994.51
2019-03-10T10:45:45.185Z,994.60
2019-03-10T10:46:45.171Z,994.49
2019-03-10T10:47:45.154Z,994.55
2019-03-10T10:48:45.157Z,994.49
2019-03-10T10:49:45.148Z,994.49
2019-03-10T10:50:45.149Z,994.41
2019-03-10T10:51:45.154Z,994.47
2019-03-10T10:52:45.112Z,994.38
2019-03-10T10:53:45.167Z,994.48
2019-03-10T10:54:45.086Z,994.39
2019-03-10T10:55:45.112Z,994.29
2019-03-10T10:56:45.170Z,994.13
2019-03-10T10:57:45.044Z,994.19
2019-03-10T10:58:45.722Z,994.40
2019-03-10T10:59:45.052Z,994.12
2019-03-10T11:00:45.005Z,994.29
2019-03-10T11:01:45.020Z,994.54
2019-03-10T11:02:45.005Z,994.25
2019-03-10T11:03:44.977Z,994.14
2019-03-10T11:04:45.075Z,994.19
2019-03-10T11:05:44.975Z,994.13
2019-03-10T11:06:45.219Z,994.16
2019-03-10T11:07:44.962Z,994.19
2019-03-10T11:08:44.927Z,994.04
2019-03-10T11:09:44.934Z,994.02
2019-03-10T11:10:44.899Z,994.34
2019-03-10T11:11:44.913Z,994.12
2019-03-10T11:12:44.927Z,994.08
2019-03-10T11:13:44.906Z,994.23
2019-03-10T11:14:44.877Z,994.15
2019-03-10T11:15:44.928Z,994.00
2019-03-10T11:16:45.570Z,994.27
2019-03-10T11:17:44.831Z,994.17
2019-03-10T11:18:44.821Z,994.06
2019-03-10T11:19:44.818Z,994.15
2019-03-10T11:20:44.798Z,994.10
2019-03-10T11:21:44.832Z,994.09
2019-03-10T11:22:44.780Z,994.01
2019-03-10T11:23:44.765Z,994.04
2019-03-10T11:24:44.797Z,994.03
2019-03-10T11:25:44.789Z,994.05
2019-03-10T11:26:44.734Z,994.08
2019-03-10T11:27:44.790Z,993.98
2019-03-10T11:28:44.702Z,993.99
2019-03-10T11:29:45.241Z,994.04
2019-03-10T11:30:44.752Z,993.88
2019-03-10T11:31:44.717Z,994.10
2019-03-10T11:32:44.652Z,994.05
2019-03-10T11:33:44.650Z,993.96
2019-03-10T11:34:44.631Z,993.92
2019-03-10T11:35:44.637Z,993.87
2019-03-10T11:36:44.611Z,993.96
2019-03-10T11:37:44.632Z,993.82
2019-03-10T11:38:44.593Z,993.82
2019-03-10T11:39:44.592Z,993.89
2019-03-10T11:40:44.586Z,993.70
2019-03-10T11:41:44.556Z,993.95
2019-03-10T11:42:44.590Z,993.77
2019-03-10T11:43:44.521Z,993.71
2019-03-10T11:44:44.589Z,993.69
2019-03-10T11:45:44.536Z,993.74
2019-03-10T11:46:44.531Z,993.59
2019-03-10T11:47:44.478Z,993.65
2019-03-10T11:48:44.493Z,993.81
2019-03-10T11:49:44.470Z,993.70
2019-03-10T11:50:44.484Z,993.75
2019-03-10T11:51:44.454Z,993.63
2019-03-10T11:52:44.470Z,993.61
2019-03-10T11:53:44.422Z,993.60
2019-03-10T11:54:44.441Z,993.61
2019-03-10T11:55:44.409Z,993.81
2019-03-10T11:56:44.410Z,994.06
2019-03-10T11:57:44.371Z,993.98
2019-03-10T11:58:44.365Z,993.71
2019-03-10T11:59:44.351Z,994.01
2019-03-10T12:00:44.435Z,993.56
2019-03-10T12:01:44.354Z,993.98
2019-03-10T12:02:44.308Z,994.05
2019-03-10T12:03:44.468Z,993.93
2019-03-10T12:04:44.355Z,993.97
2019-03-10T12:05:44.313Z,994.01
2019-03-10T12:06:44.821Z,993.92
2019-03-10T12:07:44.288Z,993.90
2019-03-10T12:08:44.373Z,994.08
2019-03-10T12:09:44.231Z,993.91
2019-03-10T12:10:44.247Z,993.92
2019-03-10T12:11:44.226Z,993.91
2019-03-10T12:12:44.203Z,993.87
2019-03-10T12:13:44.188Z,993.95
2019-03-10T12:14:44.223Z,994.09
2019-03-10T12:15:44.223Z,994.00
2019-03-10T12:16:44.158Z,994.01
2019-03-10T12:17:44.219Z,994.07
2019-03-10T12:18:44.161Z,994.17